createdAt,value
2022-07-29T00:02:27.226Z,101477.06
2022-07-29T00:04:54.066Z,101479.09
2022-07-29T00:07:21.063Z,101476.66
2022-07-29T00:09:52.119Z,101471.19
2022-07-29T00:12:25.496Z,101471.41
2022-07-29T00:14:56.395Z,101460.25
2022-07-29T00:17:24.787Z,101462.28
2022-07-29T00:19:51.832Z,101461.66
2022-07-29T00:22:20.562Z,101460.66
2022-07-29T00:24:48.766Z,101454.00
2022-07-29T00:27:15.501Z,101447.72
2022-07-29T00:29:42.113Z,101444.69
2022-07-29T00:32:08.724Z,101450.16
2022-07-29T00:34:53.997Z,101442.47
2022-07-29T00:37:20.644Z,101434.59
2022-07-29T00:39:47.253Z,101436.97
2022-07-29T00:42:15.163Z,101434.56
2022-07-29T00:44:42.862Z,101438.56
2022-07-29T00:47:11.630Z,101437.53
2022-07-29T00:49:42.641Z,101434.13
2022-07-29T00:52:11.407Z,101435.94
2022-07-29T00:54:44.035Z,101428.06
2022-07-29T00:57:13.397Z,101422.19
2022-07-29T00:59:41.432Z,101424.59
2022-07-29T01:02:08.011Z,101420.13
2022-07-29T01:04:34.999Z,101420.53
2022-07-29T01:07:05.461Z,101423.31
2022-07-29T01:09:46.113Z,101415.66
2022-07-29T01:12:27.292Z,101421.94
2022-07-29T01:14:56.235Z,101403.13
2022-07-29T01:17:29.706Z,101411.19
2022-07-29T01:20:31.226Z,101402.06
2022-07-29T01:23:14.880Z,101399.25
2022-07-29T01:25:58.484Z,101401.25
2022-07-29T01:29:07.552Z,101395.22
2022-07-29T01:31:56.605Z,101406.06
2022-07-29T01:34:34.619Z,101400.63
2022-07-29T01:37:24.818Z,101390.53
2022-07-29T01:39:55.554Z,101389.94
2022-07-29T01:42:35.137Z,101391.28
2022-07-29T01:45:10.406Z,101376.59
2022-07-29T01:47:51.073Z,101386.47
2022-07-29T01:50:20.132Z,101392.91
2022-07-29T01:52:57.332Z,101393.66
2022-07-29T01:55:29.276Z,101382.75
2022-07-29T01:57:59.889Z,101373.66
2022-07-29T02:00:28.440Z,101364.53
2022-07-29T02:02:57.076Z,101367.56
2022-07-29T02:05:27.696Z,101370.56
2022-07-29T02:07:56.835Z,101370.75
2022-07-29T02:10:27.946Z,101376.00
2022-07-29T02:12:57.099Z,101368.94
2022-07-29T02:15:26.168Z,101376.41
2022-07-29T02:17:57.483Z,101376.00
2022-07-29T02:20:26.511Z,101377.56
2022-07-29T02:22:55.425Z,101380.56
2022-07-29T02:25:25.487Z,101371.47
2022-07-29T02:28:05.095Z,101373.47
2022-07-29T02:30:32.761Z,101373.47
2022-07-29T02:33:00.428Z,101373.06
2022-07-29T02:35:27.635Z,101365.75
2022-07-29T02:38:19.656Z,101356.63
2022-07-29T02:40:47.046Z,101355.84
2022-07-29T02:43:13.940Z,101358.00
2022-07-29T02:45:40.648Z,101362.03
2022-07-29T02:48:14.168Z,101355.97
2022-07-29T02:50:49.773Z,101359.56
2022-07-29T02:53:21.117Z,101359.34
2022-07-29T02:55:56.425Z,101354.47
2022-07-29T02:58:50.577Z,101356.84
2022-07-29T03:01:22.737Z,101358.44
2022-07-29T03:03:51.819Z,101350.50
2022-07-29T03:06:37.559Z,101352.34
2022-07-29T03:09:10.471Z,101355.94
2022-07-29T03:11:49.137Z,101354.13
2022-07-29T03:14:20.542Z,101358.34
2022-07-29T03:16:50.088Z,101343.47
2022-07-29T03:19:17.655Z,101350.69
2022-07-29T03:21:44.249Z,101346.84
2022-07-29T03:24:11.208Z,101355.50
2022-07-29T03:26:38.254Z,101348.44
2022-07-29T03:29:04.832Z,101349.81
2022-07-29T03:31:32.130Z,101355.69
2022-07-29T03:34:00.275Z,101356.50
2022-07-29T03:36:26.904Z,101361.31
2022-07-29T03:38:53.918Z,101353.00
2022-07-29T03:41:23.854Z,101352.19
2022-07-29T03:43:55.295Z,101353.22
2022-07-29T03:46:24.808Z,101356.81
2022-07-29T03:48:56.361Z,101360.44
2022-07-29T03:51:33.834Z,101355.81
2022-07-29T03:54:07.883Z,101357.25
2022-07-29T03:56:43.099Z,101358.03
2022-07-29T03:59:12.433Z,101357.41
2022-07-29T04:01:40.786Z,101355.81
2022-07-29T04:04:07.812Z,101349.72
2022-07-29T04:06:45.796Z,101348.91
2022-07-29T04:09:16.170Z,101358.94
2022-07-29T04:12:03.859Z,101358.53
2022-07-29T04:14:30.350Z,101356.19
2022-07-29T04:16:56.996Z,101369.06
2022-07-29T04:19:23.701Z,101370.91
2022-07-29T04:21:50.472Z,101374.75
2022-07-29T04:24:17.586Z,101377.56
2022-07-29T04:26:44.733Z,101389.28
2022-07-29T04:29:12.918Z,101397.56
2022-07-29T04:31:39.526Z,101396.19
2022-07-29T04:34:06.293Z,101387.59
2022-07-29T04:36:33.015Z,101392.06
2022-07-29T04:38:59.807Z,101387.09
2022-07-29T04:41:32.839Z,101389.34
2022-07-29T04:44:02.016Z,101381.91
2022-07-29T04:46:29.900Z,101378.09
2022-07-29T04:48:56.718Z,101388.38
2022-07-29T04:51:23.633Z,101395.03
2022-07-29T04:53:50.263Z,101390.00
2022-07-29T04:56:16.907Z,101384.56
2022-07-29T04:58:43.494Z,101390.44
2022-07-29T05:01:10.242Z,101378.75
2022-07-29T05:03:36.858Z,101383.63
2022-07-29T05:06:03.533Z,101376.22
2022-07-29T05:08:30.178Z,101377.22
2022-07-29T05:10:56.870Z,101383.44
2022-07-29T05:13:23.615Z,101389.88
2022-07-29T05:15:52.221Z,101394.09
2022-07-29T05:18:18.853Z,101393.75
2022-07-29T05:20:45.537Z,101399.44
2022-07-29T05:23:13.854Z,101402.03
2022-07-29T05:25:42.931Z,101403.69
2022-07-29T05:28:11.829Z,101404.84
2022-07-29T05:30:38.467Z,101397.75
2022-07-29T05:33:05.142Z,101402.53
2022-07-29T05:35:31.645Z,101396.47
2022-07-29T05:37:58.214Z,101401.78
2022-07-29T05:40:24.856Z,101392.72
2022-07-29T05:42:51.529Z,101395.13
2022-07-29T05:45:18.119Z,101395.13
2022-07-29T05:47:44.710Z,101400.53
2022-07-29T05:50:11.523Z,101408.75
2022-07-29T05:52:38.117Z,101410.84
2022-07-29T05:55:06.557Z,101405.41
2022-07-29T05:57:33.718Z,101409.63
2022-07-29T06:00:01.516Z,101424.63
2022-07-29T06:02:28.122Z,101426.94
2022-07-29T06:04:54.927Z,101432.22
2022-07-29T06:07:21.750Z,101438.50
2022-07-29T06:09:48.534Z,101445.63
2022-07-29T06:12:15.448Z,101445.03
2022-07-29T06:14:42.169Z,101444.63
2022-07-29T06:17:08.889Z,101445.09
2022-07-29T06:19:36.429Z,101445.50
2022-07-29T06:22:03.347Z,101449.38
2022-07-29T06:24:30.032Z,101449.78
2022-07-29T06:26:57.002Z,101453.84
2022-07-29T06:29:23.659Z,101452.44
2022-07-29T06:31:51.494Z,101454.69
2022-07-29T06:34:18.337Z,101448.63
2022-07-29T06:36:46.060Z,101444.22
2022-07-29T06:39:13.018Z,101438.97
2022-07-29T06:41:39.771Z,101432.50
2022-07-29T06:44:06.357Z,101438.56
2022-07-29T06:46:33.758Z,101442.38
2022-07-29T06:49:02.535Z,101447.22
2022-07-29T06:51:29.707Z,101430.28
2022-07-29T06:54:02.412Z,101437.28
2022-07-29T06:56:44.979Z,101435.25
2022-07-29T06:59:13.276Z,101430.81
2022-07-29T07:01:42.867Z,101424.34
2022-07-29T07:04:10.792Z,101419.69
2022-07-29T07:06:38.015Z,101414.81
2022-07-29T07:09:05.123Z,101416.22
2022-07-29T07:11:31.850Z,101415.75
2022-07-29T07:14:03.340Z,101416.34
2022-07-29T07:16:31.973Z,101419.16
2022-07-29T07:18:58.774Z,101417.53
2022-07-29T07:21:25.387Z,101411.06
2022-07-29T07:23:52.038Z,101411.44
2022-07-29T07:26:18.584Z,101402.38
2022-07-29T07:28:45.222Z,101392.91
2022-07-29T07:31:12.907Z,101393.53
2022-07-29T07:33:39.517Z,101394.16
2022-07-29T07:36:06.299Z,101393.59
2022-07-29T07:38:33.007Z,101391.81
2022-07-29T07:41:00.246Z,101388.19
2022-07-29T07:43:27.092Z,101388.59
2022-07-29T07:45:54.825Z,101387.03
2022-07-29T07:48:21.923Z,101384.81
2022-07-29T07:50:50.339Z,101380.81
2022-07-29T07:53:17.374Z,101374.78
2022-07-29T07:56:09.452Z,101375.16
2022-07-29T07:58:31.299Z,101380.59
2022-07-29T08:00:57.982Z,101382.81
2022-07-29T08:03:24.762Z,101375.78
2022-07-29T08:05:55.368Z,101365.06
2022-07-29T08:08:22.075Z,101372.78
2022-07-29T08:10:54.885Z,101376.00
2022-07-29T08:13:23.985Z,101373.19
2022-07-29T08:16:12.422Z,101375.19
2022-07-29T08:18:41.064Z,101375.41
2022-07-29T08:21:08.229Z,101390.97
2022-07-29T08:24:00.839Z,101387.59
2022-07-29T08:26:28.566Z,101380.75
2022-07-29T08:28:55.308Z,101378.13
2022-07-29T08:31:23.024Z,101376.31
2022-07-29T08:33:49.621Z,101378.72
2022-07-29T08:36:16.332Z,101379.97
2022-07-29T08:38:42.970Z,101382.16
2022-07-29T08:41:09.739Z,101383.16
2022-07-29T08:43:38.471Z,101386.41
2022-07-29T08:46:05.467Z,101387.81
2022-07-29T08:48:32.813Z,101393.06
2022-07-29T08:51:01.476Z,101400.75
2022-07-29T08:53:29.750Z,101400.16
2022-07-29T08:55:57.111Z,101402.78
2022-07-29T08:58:26.366Z,101406.00
2022-07-29T09:00:56.765Z,101412.25
2022-07-29T09:03:26.748Z,101424.56
2022-07-29T09:05:54.030Z,101447.97
2022-07-29T09:08:21.265Z,101432.03
2022-07-29T09:10:48.073Z,101433.47
2022-07-29T09:13:14.782Z,101434.72
2022-07-29T09:15:41.442Z,101434.50
2022-07-29T09:18:08.031Z,101438.56
2022-07-29T09:21:11.907Z,101443.59
2022-07-29T09:23:38.658Z,101451.47
2022-07-29T09:26:07.109Z,101454.56
2022-07-29T09:28:33.817Z,101454.75
2022-07-29T09:31:00.458Z,101458.78
2022-07-29T09:33:36.685Z,101454.16
2022-07-29T09:36:07.113Z,101463.66
2022-07-29T09:38:34.686Z,101464.47
2022-07-29T09:41:05.778Z,101461.66
2022-07-29T09:43:33.962Z,101475.75
2022-07-29T09:46:15.974Z,101481.66
2022-07-29T09:48:42.857Z,101474.56
2022-07-29T09:51:23.069Z,101474.56
2022-07-29T09:53:53.725Z,101478.19
2022-07-29T09:56:20.345Z,101478.00
2022-07-29T09:58:47.993Z,101471.16
2022-07-29T10:01:16.057Z,101464.06
2022-07-29T10:03:53.974Z,101464.09
2022-07-29T10:06:20.592Z,101463.53
2022-07-29T10:08:47.840Z,101468.97
2022-07-29T10:11:17.313Z,101460.91
2022-07-29T10:13:45.535Z,101457.69
2022-07-29T10:16:13.986Z,101465.81
2022-07-29T10:18:42.764Z,101458.13
2022-07-29T10:21:11.071Z,101457.53
2022-07-29T10:23:50.300Z,101452.88
2022-07-29T10:26:18.006Z,101446.63
2022-07-29T10:28:45.214Z,101448.03
2022-07-29T10:31:23.439Z,101448.22
2022-07-29T10:34:12.986Z,101442.19
2022-07-29T10:36:54.441Z,101437.34
2022-07-29T10:39:41.570Z,101437.75
2022-07-29T10:42:29.765Z,101435.91
2022-07-29T10:45:01.785Z,101429.06
2022-07-29T10:47:28.597Z,101432.91
2022-07-29T10:50:01.302Z,101427.84
2022-07-29T10:52:53.771Z,101438.34
2022-07-29T10:55:49.530Z,101440.38
2022-07-29T10:58:27.353Z,101431.25
2022-07-29T11:00:56.306Z,101422.41
2022-07-29T11:03:50.410Z,101414.91
2022-07-29T11:06:26.358Z,101408.88
2022-07-29T11:09:16.683Z,101402.81
2022-07-29T11:15:02.461Z,101408.28
2022-07-29T11:17:46.956Z,101398.75
2022-07-29T11:20:36.552Z,101406.25
2022-07-29T11:23:34.100Z,101397.13
2022-07-29T11:26:21.093Z,101393.50
2022-07-29T11:28:52.290Z,101409.06
2022-07-29T11:31:55.887Z,101417.75
2022-07-29T11:34:34.847Z,101418.41
2022-07-29T11:37:10.576Z,101425.88
2022-07-29T11:39:39.886Z,101431.38
2022-07-29T11:42:28.467Z,101425.91
2022-07-29T11:45:41.702Z,101422.66
2022-07-29T11:48:26.948Z,101427.69
2022-07-29T11:50:48.358Z,101410.50
2022-07-29T11:53:16.216Z,101419.34
2022-07-29T11:55:50.939Z,101422.56
2022-07-29T11:58:25.116Z,101420.28
2022-07-29T12:00:55.354Z,101420.88
2022-07-29T12:03:35.197Z,101430.56
2022-07-29T12:06:13.086Z,101416.56
2022-07-29T12:08:44.504Z,101416.13
2022-07-29T12:11:22.757Z,101418.09
2022-07-29T12:13:52.221Z,101410.31
2022-07-29T12:16:25.341Z,101410.84
2022-07-29T12:18:59.871Z,101415.66
2022-07-29T12:21:28.819Z,101417.25
2022-07-29T12:24:05.842Z,101406.09
2022-07-29T12:26:36.668Z,101406.50
2022-07-29T12:29:03.967Z,101401.38
2022-07-29T12:31:43.493Z,101402.28
2022-07-29T12:34:12.957Z,101402.19
2022-07-29T12:36:40.128Z,101394.78
2022-07-29T12:39:06.974Z,101396.28
2022-07-29T12:41:33.584Z,101404.88
2022-07-29T12:44:00.159Z,101394.41
2022-07-29T12:46:27.229Z,101400.50
2022-07-29T12:48:55.907Z,101392.56
2022-07-29T12:51:38.352Z,101396.81
2022-07-29T12:54:14.527Z,101390.16
2022-07-29T12:56:44.468Z,101390.78
2022-07-29T12:59:16.602Z,101393.66
2022-07-29T13:01:44.006Z,101388.75
2022-07-29T13:04:10.880Z,101391.41
2022-07-29T13:06:51.176Z,101387.72
2022-07-29T13:09:23.406Z,101383.00
2022-07-29T13:11:52.731Z,101393.69
2022-07-29T13:14:36.274Z,101383.59
2022-07-29T13:17:08.487Z,101390.72
2022-07-29T13:19:41.614Z,101389.91
2022-07-29T13:22:12.554Z,101388.06
2022-07-29T13:24:57.517Z,101387.25
2022-07-29T13:27:29.677Z,101392.66
2022-07-29T13:29:58.647Z,101392.78
2022-07-29T13:32:29.264Z,101388.25
2022-07-29T13:35:04.988Z,101393.47
2022-07-29T13:37:35.297Z,101395.50
2022-07-29T13:40:04.217Z,101398.66
2022-07-29T13:42:31.231Z,101395.63
2022-07-29T13:44:58.320Z,101395.63
2022-07-29T13:47:32.370Z,101395.63
2022-07-29T13:50:02.553Z,101400.81
2022-07-29T13:52:29.778Z,101396.19
2022-07-29T13:54:56.923Z,101394.47
2022-07-29T13:57:23.629Z,101391.81
2022-07-29T13:59:54.174Z,101390.56
2022-07-29T14:02:25.284Z,101393.38
2022-07-29T14:04:55.863Z,101404.31
2022-07-29T14:07:23.080Z,101398.28
2022-07-29T14:09:49.623Z,101387.84
2022-07-29T14:12:16.222Z,101391.66
2022-07-29T14:14:43.004Z,101394.63
2022-07-29T14:17:10.383Z,101391.97
2022-07-29T14:19:38.854Z,101385.94
2022-07-29T14:22:07.196Z,101396.56
2022-07-29T14:24:37.320Z,101387.63
2022-07-29T14:27:05.368Z,101391.50
2022-07-29T14:29:37.073Z,101387.03
2022-07-29T14:32:07.345Z,101389.38
2022-07-29T14:34:34.815Z,101396.88
2022-07-29T14:37:01.692Z,101389.41
2022-07-29T14:39:32.029Z,101380.59
2022-07-29T14:41:59.613Z,101382.28
2022-07-29T14:44:32.139Z,101382.69
2022-07-29T14:47:00.672Z,101384.84
2022-07-29T14:49:28.668Z,101377.53
2022-07-29T14:51:55.558Z,101376.84
2022-07-29T14:54:22.598Z,101376.13
2022-07-29T14:56:51.824Z,101388.66
2022-07-29T14:59:18.397Z,101378.19
2022-07-29T15:01:45.139Z,101382.38
2022-07-29T15:04:11.702Z,101386.72
2022-07-29T15:06:38.975Z,101384.06
2022-07-29T15:09:05.699Z,101376.97
2022-07-29T15:11:32.326Z,101377.06
2022-07-29T15:14:04.789Z,101380.59
2022-07-29T15:16:31.416Z,101373.44
2022-07-29T15:19:01.343Z,101376.25
2022-07-29T15:21:28.691Z,101384.47
2022-07-29T15:23:55.393Z,101382.28
2022-07-29T15:26:22.459Z,101379.16
2022-07-29T15:28:49.243Z,101376.03
2022-07-29T15:31:16.053Z,101377.88
2022-07-29T15:33:42.719Z,101372.78
2022-07-29T15:36:09.650Z,101371.19
2022-07-29T15:38:41.763Z,101371.94
2022-07-29T15:41:09.129Z,101372.16
2022-07-29T15:43:36.256Z,101365.72
2022-07-29T15:46:21.535Z,101359.78
2022-07-29T15:48:48.420Z,101364.53
2022-07-29T15:51:15.303Z,101365.81
2022-07-29T15:53:42.043Z,101365.81
2022-07-29T15:56:08.687Z,101362.94
2022-07-29T15:58:35.316Z,101373.38
2022-07-29T16:01:02.031Z,101360.97
2022-07-29T16:03:28.793Z,101352.28
2022-07-29T16:05:57.414Z,101351.25
2022-07-29T16:08:24.217Z,101350.22
2022-07-29T16:10:50.897Z,101345.22
2022-07-29T16:13:18.762Z,101352.38
2022-07-29T16:16:02.803Z,101346.59
2022-07-29T16:18:30.344Z,101349.00
2022-07-29T16:20:57.492Z,101352.94
2022-07-29T16:23:24.755Z,101353.34
2022-07-29T16:25:59.660Z,101346.59
2022-07-29T16:28:27.859Z,101357.69
2022-07-29T16:30:54.641Z,101358.75
2022-07-29T16:33:21.255Z,101356.34
2022-07-29T16:35:47.838Z,101354.25
2022-07-29T16:38:14.458Z,101354.72
2022-07-29T16:40:41.149Z,101345.97
2022-07-29T16:43:08.088Z,101349.44
2022-07-29T16:45:45.308Z,101343.31
2022-07-29T16:48:12.814Z,101347.31
2022-07-29T16:50:40.093Z,101348.63
2022-07-29T16:53:07.116Z,101352.56
2022-07-29T16:55:33.961Z,101353.06
2022-07-29T16:58:00.694Z,101344.28
2022-07-29T17:00:27.339Z,101349.25
2022-07-29T17:02:53.937Z,101346.81
2022-07-29T17:05:20.576Z,101346.81
2022-07-29T17:07:47.575Z,101356.44
2022-07-29T17:10:14.214Z,101352.13
2022-07-29T17:12:41.262Z,101352.38
2022-07-29T17:15:10.873Z,101344.91
2022-07-29T17:17:38.611Z,101352.03
2022-07-29T17:20:08.900Z,101361.84
2022-07-29T17:22:35.847Z,101356.78
2022-07-29T17:25:04.336Z,101360.72
2022-07-29T17:27:32.029Z,101359.84
2022-07-29T17:29:59.935Z,101359.03
2022-07-29T17:32:26.535Z,101353.72
2022-07-29T17:34:53.611Z,101352.38
2022-07-29T17:37:20.801Z,101354.47
2022-07-29T17:39:48.334Z,101358.38
2022-07-29T17:42:15.111Z,101358.84
2022-07-29T17:44:41.863Z,101359.31
2022-07-29T17:47:16.002Z,101357.38
2022-07-29T17:49:44.116Z,101360.28
2022-07-29T17:52:11.564Z,101360.19
2022-07-29T17:54:38.119Z,101361.47
2022-07-29T17:57:04.695Z,101371.28
2022-07-29T17:59:31.428Z,101363.81
2022-07-29T18:01:58.152Z,101357.38
2022-07-29T18:04:25.104Z,101363.16
2022-07-29T18:06:51.725Z,101369.16
2022-07-29T18:09:18.549Z,101372.06
2022-07-29T18:11:46.297Z,101367.47
2022-07-29T18:14:13.575Z,101362.06
2022-07-29T18:16:40.618Z,101362.97
2022-07-29T18:19:07.460Z,101363.09
2022-07-29T18:21:43.771Z,101367.28
2022-07-29T18:24:25.791Z,101370.63
2022-07-29T18:26:52.797Z,101373.97
2022-07-29T18:29:20.447Z,101373.88
2022-07-29T18:31:47.086Z,101379.84
2022-07-29T18:34:13.754Z,101377.09
2022-07-29T18:36:40.387Z,101381.50
2022-07-29T18:39:06.938Z,101378.75
2022-07-29T18:41:46.099Z,101383.09
2022-07-29T18:44:17.632Z,101379.56
2022-07-29T18:46:47.227Z,101382.09
2022-07-29T18:49:15.213Z,101380.34
2022-07-29T18:51:42.770Z,101381.50
2022-07-29T18:54:10.542Z,101384.84
2022-07-29T18:56:37.326Z,101383.09
2022-07-29T18:59:04.321Z,101391.94
2022-07-29T19:01:31.690Z,101398.94
2022-07-29T19:03:59.160Z,101398.84
2022-07-29T19:06:26.164Z,101388.34
2022-07-29T19:08:53.415Z,101389.28
2022-07-29T19:11:19.985Z,101397.06
2022-07-29T19:13:46.606Z,101394.53
2022-07-29T19:16:14.087Z,101391.19
2022-07-29T19:18:41.593Z,101398.97
2022-07-29T19:21:08.192Z,101393.81
2022-07-29T19:24:01.573Z,101395.50
2022-07-29T19:26:21.535Z,101401.06
2022-07-29T19:28:48.846Z,101401.41
2022-07-29T19:31:16.015Z,101403.53
2022-07-29T19:33:42.867Z,101407.31
2022-07-29T19:36:09.511Z,101419.78
2022-07-29T19:38:38.189Z,101420.06
2022-07-29T19:41:06.327Z,101414.06
2022-07-29T19:43:50.631Z,101414.13
2022-07-29T19:46:20.011Z,101421.56
2022-07-29T19:48:46.656Z,101426.06
2022-07-29T19:51:13.370Z,101424.28
2022-07-29T19:53:40.254Z,101423.34
2022-07-29T19:56:08.850Z,101420.53
2022-07-29T19:58:35.794Z,101417.97
2022-07-29T20:01:02.918Z,101426.97
2022-07-29T20:03:39.743Z,101425.78
2022-07-29T20:06:07.552Z,101428.03
2022-07-29T20:08:34.209Z,101430.31
2022-07-29T20:11:00.993Z,101434.41
2022-07-29T20:13:27.848Z,101431.59
2022-07-29T20:15:54.485Z,101435.72
2022-07-29T20:18:21.171Z,101436.34
2022-07-29T20:20:49.560Z,101435.97
2022-07-29T20:23:17.134Z,101442.47
2022-07-29T20:25:43.740Z,101441.50
2022-07-29T20:28:10.397Z,101441.94
2022-07-29T20:30:38.591Z,101437.31
2022-07-29T20:33:05.766Z,101443.41
2022-07-29T20:35:32.672Z,101447.47
2022-07-29T20:38:00.384Z,101443.88
2022-07-29T20:40:29.168Z,101447.91
2022-07-29T20:42:56.283Z,101450.41
2022-07-29T20:45:23.636Z,101445.78
2022-07-29T20:47:52.840Z,101448.59
2022-07-29T20:50:23.759Z,101455.09
2022-07-29T20:52:51.775Z,101458.16
2022-07-29T20:55:19.473Z,101449.69
2022-07-29T20:57:46.040Z,101455.34
2022-07-29T21:00:13.189Z,101448.09
2022-07-29T21:02:39.948Z,101459.66
2022-07-29T21:05:06.706Z,101452.59
2022-07-29T21:07:33.353Z,101452.59
2022-07-29T21:09:59.969Z,101450.38
2022-07-29T21:12:26.616Z,101456.66
2022-07-29T21:14:53.222Z,101457.28
2022-07-29T21:17:22.399Z,101455.28
2022-07-29T21:19:52.598Z,101458.13
2022-07-29T21:22:21.968Z,101457.53
2022-07-29T21:24:49.329Z,101457.13
2022-07-29T21:27:34.877Z,101458.56
2022-07-29T21:30:01.620Z,101461.19
2022-07-29T21:32:30.138Z,101449.47
2022-07-29T21:34:57.457Z,101455.34
2022-07-29T21:37:24.452Z,101455.75
2022-07-29T21:39:51.133Z,101460.63
2022-07-29T21:42:20.398Z,101457.41
2022-07-29T21:44:49.123Z,101465.09
2022-07-29T21:47:15.872Z,101461.06
2022-07-29T21:49:43.428Z,101466.13
2022-07-29T21:52:10.056Z,101473.81
2022-07-29T21:54:39.018Z,101461.88
2022-07-29T21:57:05.842Z,101458.84
2022-07-29T21:59:32.569Z,101460.88
2022-07-29T22:02:01.035Z,101466.53
2022-07-29T22:04:31.273Z,101464.31
2022-07-29T22:06:58.841Z,101467.75
2022-07-29T22:09:25.737Z,101467.56
2022-07-29T22:11:52.394Z,101468.38
2022-07-29T22:14:19.065Z,101468.16
2022-07-29T22:16:47.044Z,101470.38
2022-07-29T22:19:14.421Z,101466.16
2022-07-29T22:21:42.217Z,101475.03
2022-07-29T22:24:10.388Z,101471.78
2022-07-29T22:26:37.606Z,101470.59
2022-07-29T22:29:04.369Z,101468.56
2022-07-29T22:31:30.905Z,101470.13
2022-07-29T22:33:57.549Z,101468.53
2022-07-29T22:36:25.034Z,101466.91
2022-07-29T22:38:52.096Z,101466.88
2022-07-29T22:41:18.964Z,101466.88
2022-07-29T22:43:45.671Z,101470.72
2022-07-29T22:46:12.370Z,101460.38
2022-07-29T22:48:39.117Z,101469.09
2022-07-29T22:51:05.862Z,101473.53
2022-07-29T22:53:32.460Z,101461.63
2022-07-29T22:56:00.071Z,101465.84
2022-07-29T22:58:26.743Z,101463.44
2022-07-29T23:00:53.546Z,101463.81
2022-07-29T23:03:20.684Z,101470.72
2022-07-29T23:05:47.295Z,101469.47
2022-07-29T23:08:13.879Z,101469.06
2022-07-29T23:10:40.433Z,101470.66
2022-07-29T23:13:07.392Z,101463.38
2022-07-29T23:15:33.948Z,101467.63
2022-07-29T23:18:00.927Z,101462.94
2022-07-29T23:20:27.875Z,101454.25
2022-07-29T23:22:54.529Z,101459.47
2022-07-29T23:25:21.343Z,101460.66
2022-07-29T23:27:47.933Z,101460.66
2022-07-29T23:30:14.563Z,101452.97
2022-07-29T23:32:41.088Z,101456.78
2022-07-29T23:35:08.467Z,101454.75
2022-07-29T23:37:35.373Z,101452.94
2022-07-29T23:40:04.195Z,101452.31
2022-07-29T23:42:30.823Z,101450.66
2022-07-29T23:44:57.514Z,101443.97
2022-07-29T23:47:24.140Z,101440.94
2022-07-29T23:49:50.891Z,101441.94
2022-07-29T23:52:17.988Z,101446.78
2022-07-29T23:54:44.560Z,101442.31
2022-07-29T23:57:11.156Z,101440.91
2022-07-29T23:59:40.236Z,101443.91
